Flight Track Log - Related Links

Times and Time Zones

All times are in EDT time to prevent confusion due to time zone crossing. See the N38GT flight status page for this flight to view local times or setup timezone preferences in your user account.

Time Position Orientation Groundspeed Altitude Reporting Facility
EDT Latitude Longitude Course Direction KTS MPH feet Rate Location/Type
Tue 11:39:51 AM 39.5828 -104.8510 333° Northwest 170 196 6,100  Level FlightAware ADS-B
Tue 11:40:06 AM 39.5960 -104.8530 353° North 189 217 6,500 1,579 Climbing FlightAware ADS-B
Tue 11:40:10 AM 39.5994 -104.8540 347° North 199 229 6,600 2,172 Climbing FlightAware ADS-B
Tue 11:41:04 AM 39.6200 -104.9170 293° West 235 270 8,600 2,366 Climbing FlightAware ADS-B
Tue 11:41:21 AM 39.6201 -104.9440 270° West 239 275 9,400 2,694 Climbing FlightAware ADS-B
Tue 11:41:53 AM 39.6184 -104.9900 267° West 247 284 10,800 2,743 Climbing FlightAware ADS-B
Tue 11:42:31 AM 39.6165 -105.0470 268° West 248 285 12,600 2,829 Climbing FlightAware ADS-B
Tue 11:43:03 AM 39.6159 -105.0930 269° West 249 287 14,100 2,762 Climbing FlightAware ADS-B
Tue 11:43:34 AM 39.6156 -105.1390 270° West 247 284 15,500 3,049 Climbing FlightAware ADS-B
Tue 11:44:04 AM 39.6148 -105.1830 269° West 231 266 17,200 2,936 Climbing FlightAware ADS-B
Tue 11:44:21 AM 39.6141 -105.2060 268° West 232 267 17,800 2,043 Climbing FlightAware ADS-B
Tue 11:44:51 AM 39.6085 -105.2480 260° West 241 277 18,800 1,869 Climbing FlightAware ADS-B
Tue 11:45:22 AM 39.6018 -105.2940 259° West 260 299 19,700 1,967 Climbing FlightAware ADS-B
Tue 11:45:52 AM 39.5950 -105.3400 259° West 263 303 20,800 1,869 Climbing FlightAware ADS-B
Tue 11:46:23 AM 39.5879 -105.3870 259° West 265 305 21,600 1,672 Climbing FlightAware ADS-B
Tue 11:46:53 AM 39.5809 -105.4340 259° West 272 313 22,500 1,300 Climbing FlightAware ADS-B
Tue 11:47:23 AM 39.5733 -105.4850 259° West 298 343 22,900 1,500 Climbing FlightAware ADS-B
Tue 11:47:53 AM 39.5654 -105.5380 259° West 285 328 24,000 1,967 Climbing FlightAware ADS-B
Tue 11:48:24 AM 39.5577 -105.5880 259° West 287 330 24,900 1,909 Climbing FlightAware ADS-B
Tue 11:48:37 AM 39.5541 -105.6110 259° West 285 328 25,400 2,333 Climbing FlightAware ADS-B
Tue 11:48:42 AM 39.5524 -105.6190 255° West 285 328 25,600 1,371 Climbing FlightAware ADS-B
Tue 11:49:12 AM 39.5393 -105.6680 251° West 293 337 26,200 1,180 Climbing FlightAware ADS-B
Tue 11:49:43 AM 39.5254 -105.7180 250° West 294 338 26,800 1,279 Climbing FlightAware ADS-B
Tue 11:50:13 AM 39.5115 -105.7690 251° West 297 342 27,500 1,400 Climbing FlightAware ADS-B
Tue 11:50:43 AM 39.4972 -105.8200 250° West 304 350 28,200 1,377 Climbing FlightAware ADS-B
Tue 11:51:14 AM 39.4829 -105.8720 250° West 304 350 28,900 1,279 Climbing FlightAware ADS-B
Tue 11:51:44 AM 39.4681 -105.9250 250° West 309 356 29,500 1,200 Climbing FlightAware ADS-B
Tue 11:52:14 AM 39.4534 -105.9770 250° West 309 356 30,100 1,082 Climbing FlightAware ADS-B
Tue 11:52:45 AM 39.4386 -106.0300 250° West 313 360 30,600 878 Climbing FlightAware ADS-B
Tue 11:52:55 AM 39.4335 -106.0480 250° West 316 364 30,700 837 Climbing FlightAware ADS-B
Tue 11:53:28 AM 39.4132 -106.1050 245° Southwest 323 372 31,200 1,385 Climbing FlightAware ADS-B
Tue 11:54:00 AM 39.3930 -106.1600 245° Southwest 312 359 32,200 1,714 Climbing FlightAware ADS-B
Tue 11:54:31 AM 39.3743 -106.2110 245° Southwest 305 351 33,000 1,672 Climbing FlightAware ADS-B
Tue 11:55:01 AM 39.3570 -106.2600 245° Southwest 298 343 33,900 1,600 Climbing FlightAware ADS-B
Tue 11:55:31 AM 39.3403 -106.3090 246° West 294 338 34,600 1,279 Climbing FlightAware ADS-B
Tue 11:56:02 AM 39.3237 -106.3580 246° West 295 339 35,200 1,180 Climbing FlightAware ADS-B
Tue 11:56:32 AM 39.3065 -106.4060 245° Southwest 299 344 35,800 1,102 Climbing FlightAware ADS-B
Tue 11:56:51 AM 39.2951 -106.4370 245° Southwest 300 345 36,100 1,224 Climbing FlightAware ADS-B
Tue 11:57:21 AM 39.2733 -106.4830 239° Southwest 299 344 36,800 1,300 Climbing FlightAware ADS-B
Tue 11:57:51 AM 39.2508 -106.5290 238° Southwest 300 345 37,400 1,180 Climbing FlightAware ADS-B
Tue 11:58:22 AM 39.2283 -106.5740 237° Southwest 298 343 38,000 1,279 Climbing FlightAware ADS-B
Tue 11:58:52 AM 39.2059 -106.6190 237° Southwest 291 335 38,700 1,200 Climbing FlightAware ADS-B
Tue 11:59:22 AM 39.1837 -106.6630 237° Southwest 295 339 39,200 787 Climbing FlightAware ADS-B
Tue 11:59:53 AM 39.1606 -106.7090 237° Southwest 301 346 39,500 689 Climbing FlightAware ADS-B
Tue 12:00:23 PM 39.1376 -106.7550 237° Southwest 302 348 39,900 923 Climbing FlightAware ADS-B
Tue 12:00:58 PM 39.1115 -106.8060 237° Southwest 301 346 40,500 944 Climbing FlightAware ADS-B
Tue 12:01:52 PM 39.0702 -106.8880 237° Southwest 300 345 41,300 857 Climbing FlightAware ADS-B
Tue 12:02:22 PM 39.0476 -106.9330 237° Southwest 299 344 41,700 700 Climbing FlightAware ADS-B
Tue 12:02:52 PM 39.0248 -106.9780 237° Southwest 303 349 42,000 600 Climbing FlightAware ADS-B
Tue 12:03:22 PM 39.0017 -107.0240 237° Southwest 303 349 42,300 492 Climbing FlightAware ADS-B
Tue 12:03:53 PM 38.9785 -107.0690 236° Southwest 309 356 42,500 295 Climbing FlightAware ADS-B
Tue 12:04:23 PM 38.9545 -107.1170 237° Southwest 317 365 42,600 393 Climbing FlightAware ADS-B
Tue 12:04:54 PM 38.9294 -107.1660 237° Southwest 317 365 42,900 387 Climbing FlightAware ADS-B
Tue 12:05:25 PM 38.9048 -107.2140 237° Southwest 322 371 43,000 97 Climbing FlightAware ADS-B
Tue 12:05:56 PM 38.8787 -107.2650 237° Southwest 331 381 43,000  Level FlightAware ADS-B
Tue 12:06:27 PM 38.8530 -107.3160 237° Southwest 339 390 43,000  Level FlightAware ADS-B
Tue 12:06:58 PM 38.8261 -107.3680 236° Southwest 345 397 43,000  Level FlightAware ADS-B
Tue 12:07:28 PM 38.7990 -107.4210 237° Southwest 352 405 43,000  Level FlightAware ADS-B
Tue 12:08:18 PM 38.7541 -107.5080 237° Southwest 357 411 43,000  Level FlightAware ADS-B
Tue 12:08:49 PM 38.7258 -107.5630 237° Southwest 362 417 43,000  Level FlightAware ADS-B
Tue 12:09:19 PM 38.6979 -107.6170 237° Southwest 365 420 43,000  Level FlightAware ADS-B
Tue 12:09:49 PM 38.6699 -107.6710 236° Southwest 367 422 43,000  Level FlightAware ADS-B
Tue 12:10:20 PM 38.6410 -107.7270 237° Southwest 368 423 43,000  Level FlightAware ADS-B
Tue 12:11:37 PM 38.5700 -107.8630 236° Southwest 368 423 43,000  Level FlightAware ADS-B
Tue 12:12:20 PM 38.5300 -107.9400 236° Southwest 369 425 43,000  Level FlightAware ADS-B
Tue 12:13:05 PM 38.4890 -108.0200 237° Southwest 370 426 43,000  Level FlightAware ADS-B
Tue 12:13:46 PM 38.4490 -108.0960 236° Southwest 371 427 43,000  Level FlightAware ADS-B
Tue 12:14:24 PM 38.4110 -108.1680 236° Southwest 373 429 43,000  Level FlightAware ADS-B
Tue 12:16:46 PM 38.2790 -108.4190 236° Southwest 368 423 43,000  Level FlightAware ADS-B
Tue 12:17:41 PM 38.2370 -108.4980 236° Southwest 370 426 43,000  Level FlightAware ADS-B
Tue 12:18:26 PM 38.1800 -108.6040 236° Southwest 370 426 43,000  Level FlightAware ADS-B
Tue 12:19:07 PM 38.1420 -108.6760 236° Southwest 372 428 43,000  Level FlightAware ADS-B
Tue 12:19:53 PM 38.0990 -108.7560 236° Southwest 371 427 43,000  Level FlightAware ADS-B
Tue 12:20:48 PM 38.0430 -108.8610 236° Southwest 370 426 43,000  Level FlightAware ADS-B
Tue 12:21:28 PM 38.0050 -108.9310 235° Southwest 370 426 43,000  Level FlightAware ADS-B
Tue 12:22:05 PM 37.9720 -108.9940 236° Southwest 370 426 43,000  Level FlightAware ADS-B
Tue 12:22:52 PM 37.9240 -109.0820 235° Southwest 370 426 43,000  Level FlightAware ADS-B
Tue 12:23:34 PM 37.8870 -109.1510 236° Southwest 369 425 43,000  Level FlightAware ADS-B
Tue 12:24:16 PM 37.8440 -109.2310 236° Southwest 369 425 43,000  Level FlightAware ADS-B
Tue 12:24:57 PM 37.8040 -109.3030 235° Southwest 368 423 43,000  Level FlightAware ADS-B
Tue 12:25:35 PM 37.7670 -109.3710 235° Southwest 371 427 43,000  Level FlightAware ADS-B
Tue 12:26:18 PM 37.7300 -109.4400 236° Southwest 368 423 43,000  Level FlightAware ADS-B
Tue 12:27:18 PM 37.6690 -109.5510 235° Southwest 370 426 43,000  Level FlightAware ADS-B
Tue 12:28:00 PM 37.6270 -109.6280 235° Southwest 369 425 43,000  Level FlightAware ADS-B
Tue 12:28:40 PM 37.5870 -109.7000 235° Southwest 367 422 43,000  Level FlightAware ADS-B
Tue 12:29:25 PM 37.5490 -109.7690 235° Southwest 368 423 43,000  Level FlightAware ADS-B
Tue 12:30:08 PM 37.5040 -109.8510 235° Southwest 368 423 43,000  Level FlightAware ADS-B
Tue 12:30:46 PM 37.4700 -109.9120 235° Southwest 370 426 43,000  Level FlightAware ADS-B
Tue 12:31:33 PM 37.4230 -109.9970 235° Southwest 367 422 43,000  Level FlightAware ADS-B
Tue 12:32:08 PM 37.3890 -110.0590 235° Southwest 367 422 43,000  Level FlightAware ADS-B
Tue 12:32:54 PM 37.3410 -110.1450 235° Southwest 368 423 43,000  Level FlightAware ADS-B
Tue 12:33:31 PM 37.3060 -110.2070 235° Southwest 369 425 43,000  Level FlightAware ADS-B
Tue 12:34:21 PM 37.2570 -110.2940 235° Southwest 368 423 43,000  Level FlightAware ADS-B
Tue 12:35:03 PM 37.2240 -110.3540 235° Southwest 368 423 43,000  Level FlightAware ADS-B
Tue 12:35:43 PM 37.1900 -110.4140 235° Southwest 368 423 43,000  Level FlightAware ADS-B
Tue 12:36:54 PM 37.1320 -110.5190 235° Southwest 368 423 43,000  Level FlightAware ADS-B
Tue 12:37:30 PM 37.1020 -110.5730 235° Southwest 368 423 43,000  Level FlightAware ADS-B
Tue 12:38:18 PM 37.0620 -110.6440 235° Southwest 368 423 43,000  Level FlightAware ADS-B
Tue 12:38:55 PM 37.0310 -110.6990 235° Southwest 368 423 43,000  Level FlightAware ADS-B
Tue 12:39:39 PM 36.9450 -110.8460 234° Southwest 365 420 43,000  Level FlightAware ADS-B
Tue 12:40:21 PM 36.9040 -110.9180 235° Southwest 365 420 43,000  Level FlightAware ADS-B
Tue 12:41:03 PM 36.8620 -110.9920 235° Southwest 367 422 43,000  Level FlightAware ADS-B
Tue 12:41:43 PM 36.8240 -111.0580 234° Southwest 367 422 43,000  Level FlightAware ADS-B
Tue 12:42:29 PM 36.7780 -111.1390 235° Southwest 366 421 43,000  Level FlightAware ADS-B
Tue 12:43:10 PM 36.7380 -111.2080 234° Southwest 366 421 43,000  Level FlightAware ADS-B
Tue 12:43:55 PM 36.6930 -111.2870 235° Southwest 369 425 43,000  Level FlightAware ADS-B
Tue 12:44:37 PM 36.6510 -111.3590 234° Southwest 369 425 43,000  Level FlightAware ADS-B
Tue 12:45:13 PM 36.6150 -111.4220 235° Southwest 369 425 43,000  Level FlightAware ADS-B
Tue 12:46:01 PM 36.5670 -111.5040 234° Southwest 368 423 43,000  Level FlightAware ADS-B
Tue 12:46:51 PM 36.5230 -111.5800 234° Southwest 370 426 43,000  Level FlightAware ADS-B
Tue 12:47:39 PM 36.4700 -111.6710 234° Southwest 369 425 43,000  Level FlightAware ADS-B
Tue 12:48:23 PM 36.4260 -111.7460 234° Southwest 367 422 43,000  Level FlightAware ADS-B
Tue 12:49:01 PM 36.3880 -111.8120 234° Southwest 368 423 43,000  Level FlightAware ADS-B
Tue 12:49:41 PM 36.3470 -111.8800 233° Southwest 370 426 43,000 75 Level FlightAware ADS-B
Tue 12:50:21 PM 36.3080 -111.9470 234° Southwest 370 426 43,100  Climbing FlightAware ADS-B
Tue 12:51:07 PM 36.2610 -112.0270 234° Southwest 360 414 43,000 -67 Descending FlightAware ADS-B
Tue 12:51:51 PM 36.2190 -112.0980 234° Southwest 340 391 43,000  Level FlightAware ADS-B
Tue 12:52:35 PM 36.1800 -112.1640 234° Southwest 326 375 43,000  Level FlightAware ADS-B
Tue 12:53:15 PM 36.1440 -112.2250 234° Southwest 335 386 43,000  Level FlightAware ADS-B
Tue 12:53:57 PM 36.1050 -112.2910 234° Southwest 344 396 43,000  Level FlightAware ADS-B
Tue 12:54:39 PM 36.0650 -112.3580 234° Southwest 351 404 43,000  Level FlightAware ADS-B
Tue 12:55:23 PM 36.0220 -112.4300 234° Southwest 359 413 43,000  Level FlightAware ADS-B
Tue 12:56:05 PM 35.9800 -112.5000 233° Southwest 365 420 43,000  Level FlightAware ADS-B
Tue 12:56:43 PM 35.9420 -112.5640 234° Southwest 367 422 43,000  Level FlightAware ADS-B
Tue 12:57:29 PM 35.8950 -112.6430 234° Southwest 371 427 43,000  Level FlightAware ADS-B
Tue 12:58:09 PM 35.8540 -112.7100 233° Southwest 374 430 43,000  Level FlightAware ADS-B
Tue 12:58:45 PM 35.8180 -112.7690 233° Southwest 376 433 43,000  Level FlightAware ADS-B
Tue 12:59:35 PM 35.7650 -112.8580 234° Southwest 376 433 43,000  Level FlightAware ADS-B
Tue 01:00:15 PM 35.7240 -112.9260 233° Southwest 378 435 43,000  Level FlightAware ADS-B
Tue 01:00:55 PM 35.6810 -112.9960 233° Southwest 378 435 43,000  Level FlightAware ADS-B
Tue 01:01:37 PM 35.6380 -113.0670 233° Southwest 377 434 43,000 -698 Level FlightAware ADS-B
Tue 01:02:21 PM 35.5930 -113.1420 234° Southwest 358 412 42,000 -1,429 Descending FlightAware ADS-B
Tue 01:03:01 PM 35.5540 -113.2060 233° Southwest 353 406 41,000 -1,425 Descending FlightAware ADS-B
Tue 01:03:41 PM 35.5140 -113.2710 233° Southwest 352 405 40,100 -1,465 Descending FlightAware ADS-B
Tue 01:04:27 PM 35.4690 -113.3440 233° Southwest 350 403 38,900 -1,500 Descending FlightAware ADS-B
Tue 01:05:09 PM 35.4290 -113.4100 233° Southwest 350 403 37,900 -1,244 Descending FlightAware ADS-B
Tue 01:05:49 PM 35.3890 -113.4740 233° Southwest 360 414 37,200 -1,214 Descending FlightAware ADS-B
Tue 01:06:33 PM 35.3440 -113.5480 233° Southwest 371 427 36,200 -1,241 Descending FlightAware ADS-B
Tue 01:07:16 PM 35.3000 -113.6190 233° Southwest 377 434 35,400 -1,214 Descending FlightAware ADS-B
Tue 01:07:57 PM 35.2570 -113.6890 233° Southwest 382 440 34,500 -1,333 Descending FlightAware ADS-B
Tue 01:08:37 PM 35.2130 -113.7590 232° Southwest 383 441 33,600 -1,275 Descending FlightAware ADS-B
Tue 01:09:17 PM 35.1710 -113.8270 233° Southwest 379 436 32,800 -1,214 Descending FlightAware ADS-B
Tue 01:10:01 PM 35.1250 -113.9020 233° Southwest 379 436 31,900 -1,256 Descending FlightAware ADS-B
Tue 01:10:43 PM 35.0800 -113.9730 232° Southwest 381 438 31,000 -1,320 Descending FlightAware ADS-B
Tue 01:11:41 PM 35.0180 -114.0730 233° Southwest 381 438 29,700 -1,320 Descending FlightAware ADS-B
Tue 01:12:23 PM 34.9730 -114.1450 233° Southwest 382 440 28,800 -1,244 Descending FlightAware ADS-B
Tue 01:13:03 PM 34.9300 -114.2130 232° Southwest 378 435 28,000 -571 Descending FlightAware ADS-B
Tue 01:13:47 PM 34.8830 -114.2870 232° Southwest 372 428 28,000  Level FlightAware ADS-B
Tue 01:14:29 PM 34.8400 -114.3570 233° Southwest 371 427 28,000  Level FlightAware ADS-B
Tue 01:14:53 PM 34.8150 -114.3960 232° Southwest 375 432 28,000  Level FlightAware ADS-B
Tue 01:16:45 PM 34.6920 -114.5860 232° Southwest 385 443 28,000  Level FlightAware ADS-B
Tue 01:17:25 PM 34.6470 -114.6540 231° Southwest 386 444 28,000  Level FlightAware ADS-B
Tue 01:18:05 PM 34.6030 -114.7210 231° Southwest 388 447 28,000 -837 Level FlightAware ADS-B
Tue 01:18:51 PM 34.5510 -114.7990 231° Southwest 381 438 26,800 -837 Descending FlightAware ADS-B
Tue 01:19:31 PM 34.5130 -114.8560 231° Southwest 380 437 26,800  Level FlightAware ADS-B
Tue 01:20:08 PM 34.4780 -114.9080 231° Southwest 380 437 26,800  Level FlightAware ADS-B
Tue 01:20:55 PM 34.4340 -114.9740 231° Southwest 380 437 26,800  Level FlightAware ADS-B
Tue 01:21:31 PM 34.4000 -115.0250 231° Southwest 380 437 26,800  Level FlightAware ADS-B
Tue 01:22:20 PM 34.3540 -115.0930 231° Southwest 380 437 26,800 -3,675 Level FlightAware ADS-B
Tue 01:22:51 PM 34.2967 -115.1797 231° Southwest 364 419 21,900 -4,194 Descending Los Angeles Center
Tue 01:23:53 PM 34.2375 -115.2650 230° Southwest 338 389 20,300 -1,597 Descending Los Angeles Center
Tue 01:24:55 PM 34.1886 -115.3547 237° Southwest 320 368 18,600 -1,597 Descending Los Angeles Center
Tue 01:25:57 PM 34.1442 -115.4467 240° Southwest 318 366 17,000 -1,500 Descending Los Angeles Center
Tue 01:26:59 PM 34.1003 -115.5367 240° Southwest 314 361 15,500 -1,694 Descending Los Angeles Center
Tue 01:28:01 PM 34.0472 -115.6453 240° Southwest 313 360 13,500 -1,839 Descending Los Angeles Center
Tue 01:29:03 PM 34.0039 -115.7336 239° Southwest 310 357 11,700 -1,694 Descending Los Angeles Center
Tue 01:30:05 PM 33.9614 -115.8156 238° Southwest 301 346 10,000 -968 Descending Los Angeles Center
Tue 01:31:07 PM 33.9128 -115.8861 230° Southwest 290 334 9,700 -1,200 Descending Los Angeles Center
Tue 01:32:10 PM 33.8631 -115.9539 229° Southwest 279 321 7,500 -1,296 Descending Los Angeles Center
Tue 01:33:12 PM 33.8108 -116.0283 230° Southwest 276 318 7,000 -484 Descending Los Angeles Center
Tue 01:35:00 PM 33.6669 -116.1311 189° South  Level Estimated
Tue 01:42:00 PM 33.6167 -116.1500 189° South  Level FlightAware Approximate
Tue 01:43:00 PM 33.6267 -116.1597 189° South  Level Estimated
Tue 01:44:00 PM 33.6267 -116.1597 189° South  Level Estimated
Tue 01:45:00 PM 33.6267 -116.1597 189° South  Level Estimated
Tue 01:46:00 PM 33.6267 -116.1597 189° South  Level Estimated
Tue 01:47:00 PM 33.6267 -116.1597 189° South  Level Estimated
Tue 01:48:00 PM 33.6267 -116.1597 189° South  Level Estimated
Tue 01:49:00 PM 33.6267 -116.1597 189° South  Level Estimated
Tue 01:50:00 PM 33.6267 -116.1597 189° South  Level Estimated
Tue 01:51:00 PM 33.6267 -116.1597 189° South  Level Estimated
Tue 01:52:00 PM 33.6267 -116.1597 189° South  Level Estimated
Tue 01:53:00 PM 33.6267 -116.1597 189° South  Level Estimated
Tue 01:54:00 PM 33.6267 -116.1597 189° South  Level Estimated

Login

Don't have an account? Register now (free) for customized features, flight alerts, and more!